sensor_id;sensor_type;location;lat;lon;timestamp;P1;P2;P0
57049;PMS7003;42935;50.966;16.992;2023-07-13T00:01:00;17;16;10
57049;PMS7003;42935;50.966;16.992;2023-07-13T00:04:13;13;13;10
57049;PMS7003;42935;50.966;16.992;2023-07-13T00:07:32;19;15;12
57049;PMS7003;42935;50.966;16.992;2023-07-13T00:10:47;13;13;9
57049;PMS7003;42935;50.966;16.992;2023-07-13T00:14:02;14;12;10
57049;PMS7003;42935;50.966;16.992;2023-07-13T00:17:15;18;16;13
57049;PMS7003;42935;50.966;16.992;2023-07-13T00:20:36;20;16;12
57049;PMS7003;42935;50.966;16.992;2023-07-13T00:23:52;16;13;10
57049;PMS7003;42935;50.966;16.992;2023-07-13T00:27:10;18;15;11
57049;PMS7003;42935;50.966;16.992;2023-07-13T00:30:29;16;15;12
57049;PMS7003;42935;50.966;16.992;2023-07-13T00:33:51;20;18;13
57049;PMS7003;42935;50.966;16.992;2023-07-13T00:37:08;20;14;11
57049;PMS7003;42935;50.966;16.992;2023-07-13T00:40:28;19;17;12
57049;PMS7003;42935;50.966;16.992;2023-07-13T00:43:45;20;17;13
57049;PMS7003;42935;50.966;16.992;2023-07-13T00:47:02;23;19;13
57049;PMS7003;42935;50.966;16.992;2023-07-13T00:50:19;20;16;12
57049;PMS7003;42935;50.966;16.992;2023-07-13T00:53:38;24;17;12
57049;PMS7003;42935;50.966;16.992;2023-07-13T00:56:53;19;19;13
57049;PMS7003;42935;50.966;16.992;2023-07-13T01:00:13;20;17;13
57049;PMS7003;42935;50.966;16.992;2023-07-13T01:03:30;20;15;11
57049;PMS7003;42935;50.966;16.992;2023-07-13T01:06:47;18;17;12
57049;PMS7003;42935;50.966;16.992;2023-07-13T01:10:12;23;18;13
57049;PMS7003;42935;50.966;16.992;2023-07-13T01:13:30;18;16;12
57049;PMS7003;42935;50.966;16.992;2023-07-13T01:16:49;17;14;10
57049;PMS7003;42935;50.966;16.992;2023-07-13T01:20:11;19;16;12
57049;PMS7003;42935;50.966;16.992;2023-07-13T01:23:32;18;15;12
57049;PMS7003;42935;50.966;16.992;2023-07-13T01:26:47;19;16;12
57049;PMS7003;42935;50.966;16.992;2023-07-13T01:30:04;17;17;12
57049;PMS7003;42935;50.966;16.992;2023-07-13T01:33:26;17;14;11
57049;PMS7003;42935;50.966;16.992;2023-07-13T01:36:47;18;15;11
57049;PMS7003;42935;50.966;16.992;2023-07-13T01:40:00;17;15;11
57049;PMS7003;42935;50.966;16.992;2023-07-13T01:43:19;19;16;11
57049;PMS7003;42935;50.966;16.992;2023-07-13T01:46:48;21;18;13
57049;PMS7003;42935;50.966;16.992;2023-07-13T01:50:06;20;16;12
57049;PMS7003;42935;50.966;16.992;2023-07-13T01:53:21;17;16;11
57049;PMS7003;42935;50.966;16.992;2023-07-13T01:56:38;15;15;12
57049;PMS7003;42935;50.966;16.992;2023-07-13T01:59:53;19;17;13
57049;PMS7003;42935;50.966;16.992;2023-07-13T02:03:08;21;17;14
57049;PMS7003;42935;50.966;16.992;2023-07-13T02:06:23;22;15;13
57049;PMS7003;42935;50.966;16.992;2023-07-13T02:09:40;22;18;13
57049;PMS7003;42935;50.966;16.992;2023-07-13T02:12:53;22;18;14
57049;PMS7003;42935;50.966;16.992;2023-07-13T02:16:10;19;17;12
57049;PMS7003;42935;50.966;16.992;2023-07-13T02:19:28;24;20;14
57049;PMS7003;42935;50.966;16.992;2023-07-13T02:22:44;23;20;16
57049;PMS7003;42935;50.966;16.992;2023-07-13T02:26:03;23;19;14
57049;PMS7003;42935;50.966;16.992;2023-07-13T02:29:16;22;18;14
57049;PMS7003;42935;50.966;16.992;2023-07-13T02:32:33;19;18;14
57049;PMS7003;42935;50.966;16.992;2023-07-13T02:35:50;19;19;15
57049;PMS7003;42935;50.966;16.992;2023-07-13T02:39:07;26;19;15
57049;PMS7003;42935;50.966;16.992;2023-07-13T02:42:28;20;17;12
57049;PMS7003;42935;50.966;16.992;2023-07-13T02:45:45;22;17;13
57049;PMS7003;42935;50.966;16.992;2023-07-13T02:49:02;21;20;13
57049;PMS7003;42935;50.966;16.992;2023-07-13T02:52:22;28;21;15
57049;PMS7003;42935;50.966;16.992;2023-07-13T02:55:48;26;23;15
57049;PMS7003;42935;50.966;16.992;2023-07-13T02:59:05;21;19;13
57049;PMS7003;42935;50.966;16.992;2023-07-13T03:02:21;24;19;14
57049;PMS7003;42935;50.966;16.992;2023-07-13T03:05:41;21;19;15
57049;PMS7003;42935;50.966;16.992;2023-07-13T03:09:02;21;17;12
57049;PMS7003;42935;50.966;16.992;2023-07-13T03:12:22;20;17;13
57049;PMS7003;42935;50.966;16.992;2023-07-13T03:15:38;23;20;16
57049;PMS7003;42935;50.966;16.992;2023-07-13T03:18:55;21;18;13
57049;PMS7003;42935;50.966;16.992;2023-07-13T03:22:09;25;20;14
57049;PMS7003;42935;50.966;16.992;2023-07-13T03:25:31;25;21;14
57049;PMS7003;42935;50.966;16.992;2023-07-13T03:28:49;18;16;12
57049;PMS7003;42935;50.966;16.992;2023-07-13T03:32:09;21;19;14
57049;PMS7003;42935;50.966;16.992;2023-07-13T03:35:25;22;19;14
57049;PMS7003;42935;50.966;16.992;2023-07-13T03:38:43;23;20;14
57049;PMS7003;42935;50.966;16.992;2023-07-13T03:42:00;21;19;13
57049;PMS7003;42935;50.966;16.992;2023-07-13T03:45:18;17;16;12
57049;PMS7003;42935;50.966;16.992;2023-07-13T03:48:36;17;15;12
57049;PMS7003;42935;50.966;16.992;2023-07-13T03:51:53;22;16;13
57049;PMS7003;42935;50.966;16.992;2023-07-13T03:55:10;21;16;12
57049;PMS7003;42935;50.966;16.992;2023-07-13T03:58:29;18;16;12
57049;PMS7003;42935;50.966;16.992;2023-07-13T04:01:49;21;18;13
57049;PMS7003;42935;50.966;16.992;2023-07-13T04:05:08;19;17;13
57049;PMS7003;42935;50.966;16.992;2023-07-13T04:08:26;22;19;12
57049;PMS7003;42935;50.966;16.992;2023-07-13T04:11:41;20;18;14
57049;PMS7003;42935;50.966;16.992;2023-07-13T04:14:58;23;19;14
57049;PMS7003;42935;50.966;16.992;2023-07-13T04:18:14;24;21;14
57049;PMS7003;42935;50.966;16.992;2023-07-13T04:21:35;31;25;18
57049;PMS7003;42935;50.966;16.992;2023-07-13T04:24:53;18;15;11
57049;PMS7003;42935;50.966;16.992;2023-07-13T04:28:08;16;13;10
57049;PMS7003;42935;50.966;16.992;2023-07-13T04:31:25;12;9;8
57049;PMS7003;42935;50.966;16.992;2023-07-13T04:34:43;11;11;8
57049;PMS7003;42935;50.966;16.992;2023-07-13T04:37:57;9;8;6
57049;PMS7003;42935;50.966;16.992;2023-07-13T04:41:14;13;10;8
57049;PMS7003;42935;50.966;16.992;2023-07-13T04:44:31;12;8;7
57049;PMS7003;42935;50.966;16.992;2023-07-13T04:47:48;9;7;5
57049;PMS7003;42935;50.966;16.992;2023-07-13T04:51:05;13;13;9
57049;PMS7003;42935;50.966;16.992;2023-07-13T04:54:21;12;9;6
57049;PMS7003;42935;50.966;16.992;2023-07-13T04:57:40;11;10;8
57049;PMS7003;42935;50.966;16.992;2023-07-13T05:04:21;11;7;6
57049;PMS7003;42935;50.966;16.992;2023-07-13T05:07:39;11;9;7
57049;PMS7003;42935;50.966;16.992;2023-07-13T05:10:56;12;11;8
57049;PMS7003;42935;50.966;16.992;2023-07-13T05:14:11;10;10;7
57049;PMS7003;42935;50.966;16.992;2023-07-13T05:17:25;13;8;6
57049;PMS7003;42935;50.966;16.992;2023-07-13T05:20:42;12;11;8
57049;PMS7003;42935;50.966;16.992;2023-07-13T05:23:57;13;10;7
57049;PMS7003;42935;50.966;16.992;2023-07-13T05:27:14;11;11;7
57049;PMS7003;42935;50.966;16.992;2023-07-13T05:30:27;9;8;6
57049;PMS7003;42935;50.966;16.992;2023-07-13T05:33:45;9;8;6
57049;PMS7003;42935;50.966;16.992;2023-07-13T05:36:59;12;10;7
57049;PMS7003;42935;50.966;16.992;2023-07-13T05:40:19;9;8;7
57049;PMS7003;42935;50.966;16.992;2023-07-13T05:43:35;11;10;7
57049;PMS7003;42935;50.966;16.992;2023-07-13T05:46:52;9;7;6
57049;PMS7003;42935;50.966;16.992;2023-07-13T05:50:13;7;7;6
57049;PMS7003;42935;50.966;16.992;2023-07-13T05:53:42;10;8;6
57049;PMS7003;42935;50.966;16.992;2023-07-13T05:57:02;11;7;6
57049;PMS7003;42935;50.966;16.992;2023-07-13T06:00:17;11;7;6
57049;PMS7003;42935;50.966;16.992;2023-07-13T06:03:30;9;8;7
57049;PMS7003;42935;50.966;16.992;2023-07-13T06:06:48;11;7;6
57049;PMS7003;42935;50.966;16.992;2023-07-13T06:10:06;8;8;7
57049;PMS7003;42935;50.966;16.992;2023-07-13T06:13:24;7;6;5
57049;PMS7003;42935;50.966;16.992;2023-07-13T06:16:37;9;8;7
57049;PMS7003;42935;50.966;16.992;2023-07-13T06:19:58;8;7;5
57049;PMS7003;42935;50.966;16.992;2023-07-13T06:23:13;8;8;6
57049;PMS7003;42935;50.966;16.992;2023-07-13T06:26:30;10;8;6
57049;PMS7003;42935;50.966;16.992;2023-07-13T06:29:47;6;6;5
57049;PMS7003;42935;50.966;16.992;2023-07-13T06:33:04;10;7;7
57049;PMS7003;42935;50.966;16.992;2023-07-13T06:36:22;9;8;6
57049;PMS7003;42935;50.966;16.992;2023-07-13T06:39:37;11;9;7
57049;PMS7003;42935;50.966;16.992;2023-07-13T06:42:52;10;8;6
57049;PMS7003;42935;50.966;16.992;2023-07-13T06:46:10;10;8;7
57049;PMS7003;42935;50.966;16.992;2023-07-13T06:49:27;11;10;9
57049;PMS7003;42935;50.966;16.992;2023-07-13T06:52:47;11;10;8
57049;PMS7003;42935;50.966;16.992;2023-07-13T06:56:04;15;14;10
57049;PMS7003;42935;50.966;16.992;2023-07-13T06:59:21;18;13;9
57049;PMS7003;42935;50.966;16.992;2023-07-13T07:02:35;15;13;9
57049;PMS7003;42935;50.966;16.992;2023-07-13T07:09:23;18;16;11
57049;PMS7003;42935;50.966;16.992;2023-07-13T07:12:40;20;15;12
57049;PMS7003;42935;50.966;16.992;2023-07-13T07:15:53;16;14;11
57049;PMS7003;42935;50.966;16.992;2023-07-13T07:19:08;16;15;12
57049;PMS7003;42935;50.966;16.992;2023-07-13T07:22:23;15;15;9
57049;PMS7003;42935;50.966;16.992;2023-07-13T07:25:43;15;13;8
57049;PMS7003;42935;50.966;16.992;2023-07-13T07:29:00;13;11;9
57049;PMS7003;42935;50.966;16.992;2023-07-13T07:32:20;15;13;9
57049;PMS7003;42935;50.966;16.992;2023-07-13T07:35:42;16;14;10
57049;PMS7003;42935;50.966;16.992;2023-07-13T07:39:05;18;15;10
57049;PMS7003;42935;50.966;16.992;2023-07-13T07:42:22;18;16;12
57049;PMS7003;42935;50.966;16.992;2023-07-13T07:45:38;19;16;12
57049;PMS7003;42935;50.966;16.992;2023-07-13T07:48:56;15;14;11
57049;PMS7003;42935;50.966;16.992;2023-07-13T07:52:10;17;13;9
57049;PMS7003;42935;50.966;16.992;2023-07-13T07:55:27;20;17;12
57049;PMS7003;42935;50.966;16.992;2023-07-13T07:58:48;19;14;10
57049;PMS7003;42935;50.966;16.992;2023-07-13T08:02:08;18;14;11
57049;PMS7003;42935;50.966;16.992;2023-07-13T08:05:25;11;10;8
57049;PMS7003;42935;50.966;16.992;2023-07-13T08:08:45;13;11;9
57049;PMS7003;42935;50.966;16.992;2023-07-13T08:12:00;11;9;7
57049;PMS7003;42935;50.966;16.992;2023-07-13T08:15:17;9;8;6
57049;PMS7003;42935;50.966;16.992;2023-07-13T08:18:35;9;8;6
57049;PMS7003;42935;50.966;16.992;2023-07-13T08:21:52;8;7;6
57049;PMS7003;42935;50.966;16.992;2023-07-13T08:25:05;8;8;6
57049;PMS7003;42935;50.966;16.992;2023-07-13T08:28:21;8;7;6
57049;PMS7003;42935;50.966;16.992;2023-07-13T08:31:39;9;9;7
57049;PMS7003;42935;50.966;16.992;2023-07-13T08:34:56;10;10;7
57049;PMS7003;42935;50.966;16.992;2023-07-13T08:38:16;9;8;6
57049;PMS7003;42935;50.966;16.992;2023-07-13T08:41:34;8;8;7
57049;PMS7003;42935;50.966;16.992;2023-07-13T08:44:57;10;8;6
57049;PMS7003;42935;50.966;16.992;2023-07-13T08:48:28;13;12;9
57049;PMS7003;42935;50.966;16.992;2023-07-13T08:55:17;9;8;7
57049;PMS7003;42935;50.966;16.992;2023-07-13T08:58:42;10;9;6
57049;PMS7003;42935;50.966;16.992;2023-07-13T09:02:07;12;10;8
57049;PMS7003;42935;50.966;16.992;2023-07-13T09:05:36;12;11;8
57049;PMS7003;42935;50.966;16.992;2023-07-13T09:09:02;10;10;8
57049;PMS7003;42935;50.966;16.992;2023-07-13T09:15:55;12;10;7
57049;PMS7003;42935;50.966;16.992;2023-07-13T09:19:19;13;12;9
57049;PMS7003;42935;50.966;16.992;2023-07-13T09:22:42;11;11;8
57049;PMS7003;42935;50.966;16.992;2023-07-13T09:29:29;9;8;7
57049;PMS7003;42935;50.966;16.992;2023-07-13T09:32:52;10;10;8
57049;PMS7003;42935;50.966;16.992;2023-07-13T09:42:56;7;6;5
57049;PMS7003;42935;50.966;16.992;2023-07-13T09:46:21;5;4;4
57049;PMS7003;42935;50.966;16.992;2023-07-13T09:49:37;5;5;4
57049;PMS7003;42935;50.966;16.992;2023-07-13T09:52:52;7;6;5
57049;PMS7003;42935;50.966;16.992;2023-07-13T09:59:40;8;6;5
57049;PMS7003;42935;50.966;16.992;2023-07-13T10:03:02;6;6;5
57049;PMS7003;42935;50.966;16.992;2023-07-13T10:06:28;10;7;6
57049;PMS7003;42935;50.966;16.992;2023-07-13T10:09:45;6;5;4
57049;PMS7003;42935;50.966;16.992;2023-07-13T10:13:02;6;5;4
57049;PMS7003;42935;50.966;16.992;2023-07-13T10:16:20;5;5;4
57049;PMS7003;42935;50.966;16.992;2023-07-13T10:19:41;5;5;4
57049;PMS7003;42935;50.966;16.992;2023-07-13T10:23:08;6;5;4
57049;PMS7003;42935;50.966;16.992;2023-07-13T10:26:32;6;6;4
57049;PMS7003;42935;50.966;16.992;2023-07-13T10:29:51;7;6;5
57049;PMS7003;42935;50.966;16.992;2023-07-13T10:33:13;4;4;4
57049;PMS7003;42935;50.966;16.992;2023-07-13T10:36:32;5;5;4
57049;PMS7003;42935;50.966;16.992;2023-07-13T10:39:50;7;6;5
57049;PMS7003;42935;50.966;16.992;2023-07-13T10:46:37;6;5;4
57049;PMS7003;42935;50.966;16.992;2023-07-13T10:49:57;6;6;5
57049;PMS7003;42935;50.966;16.992;2023-07-13T10:53:21;6;5;5
57049;PMS7003;42935;50.966;16.992;2023-07-13T10:56:45;5;5;4
57049;PMS7003;42935;50.966;16.992;2023-07-13T11:03:27;5;5;5
57049;PMS7003;42935;50.966;16.992;2023-07-13T11:06:47;5;5;4
57049;PMS7003;42935;50.966;16.992;2023-07-13T11:14:01;5;5;4
57049;PMS7003;42935;50.966;16.992;2023-07-13T11:20:51;4;4;4
57049;PMS7003;42935;50.966;16.992;2023-07-13T11:27:34;4;4;4
57049;PMS7003;42935;50.966;16.992;2023-07-13T11:31:01;6;5;4
57049;PMS7003;42935;50.966;16.992;2023-07-13T11:34:16;6;5;4
57049;PMS7003;42935;50.966;16.992;2023-07-13T11:37:38;5;5;4
57049;PMS7003;42935;50.966;16.992;2023-07-13T11:40:56;6;6;5
57049;PMS7003;42935;50.966;16.992;2023-07-13T11:44:19;5;4;4
57049;PMS7003;42935;50.966;16.992;2023-07-13T11:47:40;5;5;4
57049;PMS7003;42935;50.966;16.992;2023-07-13T11:51:00;6;4;4
57049;PMS7003;42935;50.966;16.992;2023-07-13T11:54:54;4;3;3
57049;PMS7003;42935;50.966;16.992;2023-07-13T11:58:17;6;4;3
57049;PMS7003;42935;50.966;16.992;2023-07-13T12:01:35;6;3;3
57049;PMS7003;42935;50.966;16.992;2023-07-13T12:05:00;3;3;3
57049;PMS7003;42935;50.966;16.992;2023-07-13T12:08:19;5;4;3
57049;PMS7003;42935;50.966;16.992;2023-07-13T12:11:36;5;4;4
57049;PMS7003;42935;50.966;16.992;2023-07-13T12:14:52;4;4;3
57049;PMS7003;42935;50.966;16.992;2023-07-13T12:18:16;4;4;3
57049;PMS7003;42935;50.966;16.992;2023-07-13T12:21:37;4;4;3
57049;PMS7003;42935;50.966;16.992;2023-07-13T12:24:55;4;4;4
57049;PMS7003;42935;50.966;16.992;2023-07-13T12:28:21;4;4;3
57049;PMS7003;42935;50.966;16.992;2023-07-13T12:31:48;4;4;4
57049;PMS7003;42935;50.966;16.992;2023-07-13T12:38:37;5;4;3
57049;PMS7003;42935;50.966;16.992;2023-07-13T12:45:28;3;3;3
57049;PMS7003;42935;50.966;16.992;2023-07-13T12:59:02;3;3;3
57049;PMS7003;42935;50.966;16.992;2023-07-13T13:02:28;3;3;2
57049;PMS7003;42935;50.966;16.992;2023-07-13T13:05:57;2;2;1
57049;PMS7003;42935;50.966;16.992;2023-07-13T13:09:22;3;2;2
57049;PMS7003;42935;50.966;16.992;2023-07-13T13:12:40;3;3;2
57049;PMS7003;42935;50.966;16.992;2023-07-13T13:15:56;3;2;1
57049;PMS7003;42935;50.966;16.992;2023-07-13T13:19:18;6;3;3
57049;PMS7003;42935;50.966;16.992;2023-07-13T13:23:12;2;2;1
57049;PMS7003;42935;50.966;16.992;2023-07-13T13:26:33;5;2;2
57049;PMS7003;42935;50.966;16.992;2023-07-13T13:29:47;2;2;2
57049;PMS7003;42935;50.966;16.992;2023-07-13T13:33:05;4;2;2
57049;PMS7003;42935;50.966;16.992;2023-07-13T13:36:25;4;3;2
57049;PMS7003;42935;50.966;16.992;2023-07-13T13:39:40;3;2;2
57049;PMS7003;42935;50.966;16.992;2023-07-13T13:42:53;2;2;1
57049;PMS7003;42935;50.966;16.992;2023-07-13T13:46:21;3;2;2
57049;PMS7003;42935;50.966;16.992;2023-07-13T13:49:41;2;2;2
57049;PMS7003;42935;50.966;16.992;2023-07-13T13:53:09;3;2;2
57049;PMS7003;42935;50.966;16.992;2023-07-13T13:56:27;3;2;2
57049;PMS7003;42935;50.966;16.992;2023-07-13T13:59:46;3;3;2
57049;PMS7003;42935;50.966;16.992;2023-07-13T14:03:05;2;2;1
57049;PMS7003;42935;50.966;16.992;2023-07-13T14:06:32;2;2;2
57049;PMS7003;42935;50.966;16.992;2023-07-13T14:09:52;2;2;2
57049;PMS7003;42935;50.966;16.992;2023-07-13T14:13:22;3;2;1
57049;PMS7003;42935;50.966;16.992;2023-07-13T14:16:36;3;2;2
57049;PMS7003;42935;50.966;16.992;2023-07-13T14:19:52;3;2;2
57049;PMS7003;42935;50.966;16.992;2023-07-13T14:23:09;1;1;1
57049;PMS7003;42935;50.966;16.992;2023-07-13T14:26:29;2;2;1
57049;PMS7003;42935;50.966;16.992;2023-07-13T14:29:49;3;2;2
57049;PMS7003;42935;50.966;16.992;2023-07-13T14:33:10;2;2;2
57049;PMS7003;42935;50.966;16.992;2023-07-13T14:36:29;1;1;1
57049;PMS7003;42935;50.966;16.992;2023-07-13T14:39:56;2;2;2
57049;PMS7003;42935;50.966;16.992;2023-07-13T14:43:13;2;2;2
57049;PMS7003;42935;50.966;16.992;2023-07-13T14:46:33;3;3;3
57049;PMS7003;42935;50.966;16.992;2023-07-13T14:49:52;3;2;2
57049;PMS7003;42935;50.966;16.992;2023-07-13T14:53:14;3;2;2
57049;PMS7003;42935;50.966;16.992;2023-07-13T14:56:31;3;3;2
57049;PMS7003;42935;50.966;16.992;2023-07-13T14:59:49;4;2;2
57049;PMS7003;42935;50.966;16.992;2023-07-13T15:03:16;2;2;2
57049;PMS7003;42935;50.966;16.992;2023-07-13T15:10:15;4;3;3
57049;PMS7003;42935;50.966;16.992;2023-07-13T15:13:38;3;3;2
57049;PMS7003;42935;50.966;16.992;2023-07-13T15:16:57;3;3;2
57049;PMS7003;42935;50.966;16.992;2023-07-13T15:23:51;2;2;2
57049;PMS7003;42935;50.966;16.992;2023-07-13T18:30:20;6;6;5
57049;PMS7003;42935;50.966;16.992;2023-07-13T18:33:40;6;6;5
57049;PMS7003;42935;50.966;16.992;2023-07-13T18:37:00;6;6;5
57049;PMS7003;42935;50.966;16.992;2023-07-13T18:40:18;7;7;6
57049;PMS7003;42935;50.966;16.992;2023-07-13T18:43:59;7;6;6
57049;PMS7003;42935;50.966;16.992;2023-07-13T18:47:14;8;7;5
57049;PMS7003;42935;50.966;16.992;2023-07-13T18:50:35;5;5;5
57049;PMS7003;42935;50.966;16.992;2023-07-13T18:53:58;8;7;6
57049;PMS7003;42935;50.966;16.992;2023-07-13T18:57:11;10;10;8
57049;PMS7003;42935;50.966;16.992;2023-07-13T19:00:27;9;9;8
57049;PMS7003;42935;50.966;16.992;2023-07-13T19:03:42;8;8;7
57049;PMS7003;42935;50.966;16.992;2023-07-13T19:06:59;15;14;11
57049;PMS7003;42935;50.966;16.992;2023-07-13T19:10:18;15;13;11
57049;PMS7003;42935;50.966;16.992;2023-07-13T19:13:45;34;29;19
57049;PMS7003;42935;50.966;16.992;2023-07-13T19:17:09;11;9;8
57049;PMS7003;42935;50.966;16.992;2023-07-13T19:20:29;9;9;8
57049;PMS7003;42935;50.966;16.992;2023-07-13T19:23:47;9;8;7
57049;PMS7003;42935;50.966;16.992;2023-07-13T19:27:03;8;8;7
57049;PMS7003;42935;50.966;16.992;2023-07-13T19:30:22;9;9;7
57049;PMS7003;42935;50.966;16.992;2023-07-13T19:33:42;11;11;9
57049;PMS7003;42935;50.966;16.992;2023-07-13T19:37:02;9;8;6
57049;PMS7003;42935;50.966;16.992;2023-07-13T19:40:27;9;8;7
57049;PMS7003;42935;50.966;16.992;2023-07-13T19:43:45;9;9;6
57049;PMS7003;42935;50.966;16.992;2023-07-13T19:47:00;8;7;6
57049;PMS7003;42935;50.966;16.992;2023-07-13T19:50:18;14;13;10
57049;PMS7003;42935;50.966;16.992;2023-07-13T19:53:39;15;13;10
57049;PMS7003;42935;50.966;16.992;2023-07-13T19:56:56;10;10;8
57049;PMS7003;42935;50.966;16.992;2023-07-13T20:00:19;11;10;8
57049;PMS7003;42935;50.966;16.992;2023-07-13T20:03:39;12;9;8
57049;PMS7003;42935;50.966;16.992;2023-07-13T20:06:56;12;11;8
57049;PMS7003;42935;50.966;16.992;2023-07-13T20:13:33;11;8;7
57049;PMS7003;42935;50.966;16.992;2023-07-13T20:20:16;5;5;4
57049;PMS7003;42935;50.966;16.992;2023-07-13T20:23:41;7;5;4
57049;PMS7003;42935;50.966;16.992;2023-07-13T20:26:57;6;5;4
57049;PMS7003;42935;50.966;16.992;2023-07-13T20:30:10;7;5;4
57049;PMS7003;42935;50.966;16.992;2023-07-13T20:33:28;6;6;4
57049;PMS7003;42935;50.966;16.992;2023-07-13T20:36:45;5;4;4
57049;PMS7003;42935;50.966;16.992;2023-07-13T20:40:00;3;3;2
57049;PMS7003;42935;50.966;16.992;2023-07-13T20:43:20;5;5;4
57049;PMS7003;42935;50.966;16.992;2023-07-13T20:46:38;5;4;4
57049;PMS7003;42935;50.966;16.992;2023-07-13T20:49:54;6;4;4
57049;PMS7003;42935;50.966;16.992;2023-07-13T20:53:10;5;4;3
57049;PMS7003;42935;50.966;16.992;2023-07-13T20:56:28;4;4;3
57049;PMS7003;42935;50.966;16.992;2023-07-13T20:59:51;4;4;3
57049;PMS7003;42935;50.966;16.992;2023-07-13T21:03:06;5;4;4
57049;PMS7003;42935;50.966;16.992;2023-07-13T21:06:30;5;4;4
57049;PMS7003;42935;50.966;16.992;2023-07-13T21:09:47;6;5;4
57049;PMS7003;42935;50.966;16.992;2023-07-13T21:13:02;6;5;4
57049;PMS7003;42935;50.966;16.992;2023-07-13T21:16:20;7;7;6
57049;PMS7003;42935;50.966;16.992;2023-07-13T21:19:39;7;7;5
57049;PMS7003;42935;50.966;16.992;2023-07-13T21:22:59;7;5;4
57049;PMS7003;42935;50.966;16.992;2023-07-13T21:26:24;9;7;5
57049;PMS7003;42935;50.966;16.992;2023-07-13T21:29:41;7;7;5
57049;PMS7003;42935;50.966;16.992;2023-07-13T21:32:57;6;5;5
57049;PMS7003;42935;50.966;16.992;2023-07-13T21:36:12;6;6;5
57049;PMS7003;42935;50.966;16.992;2023-07-13T21:39:29;7;6;5
57049;PMS7003;42935;50.966;16.992;2023-07-13T21:42:47;8;6;5
57049;PMS7003;42935;50.966;16.992;2023-07-13T21:46:04;8;8;6
57049;PMS7003;42935;50.966;16.992;2023-07-13T21:49:24;7;6;5
57049;PMS7003;42935;50.966;16.992;2023-07-13T21:52:41;6;6;5
57049;PMS7003;42935;50.966;16.992;2023-07-13T21:56:00;6;5;4
57049;PMS7003;42935;50.966;16.992;2023-07-13T22:02:42;6;5;4
57049;PMS7003;42935;50.966;16.992;2023-07-13T22:06:00;7;6;5
57049;PMS7003;42935;50.966;16.992;2023-07-13T22:09:23;7;7;6
57049;PMS7003;42935;50.966;16.992;2023-07-13T22:12:42;9;7;6
57049;PMS7003;42935;50.966;16.992;2023-07-13T22:16:02;7;6;5
57049;PMS7003;42935;50.966;16.992;2023-07-13T22:19:20;8;7;6
57049;PMS7003;42935;50.966;16.992;2023-07-13T22:22:39;11;9;7
57049;PMS7003;42935;50.966;16.992;2023-07-13T22:25:57;8;8;7
57049;PMS7003;42935;50.966;16.992;2023-07-13T22:29:17;9;8;6
57049;PMS7003;42935;50.966;16.992;2023-07-13T22:32:38;12;9;8
57049;PMS7003;42935;50.966;16.992;2023-07-13T22:35:56;8;7;6
57049;PMS7003;42935;50.966;16.992;2023-07-13T22:39:12;10;10;7
57049;PMS7003;42935;50.966;16.992;2023-07-13T22:42:27;10;9;7
57049;PMS7003;42935;50.966;16.992;2023-07-13T22:45:42;10;9;7
57049;PMS7003;42935;50.966;16.992;2023-07-13T22:52:32;12;9;7
57049;PMS7003;42935;50.966;16.992;2023-07-13T22:55:47;11;10;9
57049;PMS7003;42935;50.966;16.992;2023-07-13T22:59:05;14;12;10
57049;PMS7003;42935;50.966;16.992;2023-07-13T23:02:22;12;10;8
57049;PMS7003;42935;50.966;16.992;2023-07-13T23:05:40;15;14;10
57049;PMS7003;42935;50.966;16.992;2023-07-13T23:09:10;13;13;9
57049;PMS7003;42935;50.966;16.992;2023-07-13T23:12:26;11;11;8
57049;PMS7003;42935;50.966;16.992;2023-07-13T23:15:43;12;11;9
57049;PMS7003;42935;50.966;16.992;2023-07-13T23:19:02;11;10;8
57049;PMS7003;42935;50.966;16.992;2023-07-13T23:22:22;13;12;10
57049;PMS7003;42935;50.966;16.992;2023-07-13T23:25:43;14;12;9
57049;PMS7003;42935;50.966;16.992;2023-07-13T23:29:01;13;12;9
57049;PMS7003;42935;50.966;16.992;2023-07-13T23:32:22;13;12;10
57049;PMS7003;42935;50.966;16.992;2023-07-13T23:35:37;14;12;9
57049;PMS7003;42935;50.966;16.992;2023-07-13T23:38:56;14;11;9
57049;PMS7003;42935;50.966;16.992;2023-07-13T23:42:11;12;12;9
57049;PMS7003;42935;50.966;16.992;2023-07-13T23:45:28;14;13;9
57049;PMS7003;42935;50.966;16.992;2023-07-13T23:48:46;15;12;8
57049;PMS7003;42935;50.966;16.992;2023-07-13T23:52:05;14;13;10
57049;PMS7003;42935;50.966;16.992;2023-07-13T23:55:30;12;12;9
57049;PMS7003;42935;50.966;16.992;2023-07-13T23:58:48;12;11;9
